sensor_id;sensor_type;location;lat;lon;timestamp;P1;durP1;ratioP1;P2;durP2;ratioP2
27424;SDS011;15244;49.088;11.886;2022-12-18T00:04:48;70.97;;;32.38;;
27424;SDS011;15244;49.088;11.886;2022-12-18T00:09:49;69.15;;;31.13;;
27424;SDS011;15244;49.088;11.886;2022-12-18T00:14:51;66.25;;;31.02;;
27424;SDS011;15244;49.088;11.886;2022-12-18T00:19:52;66.05;;;30.70;;
27424;SDS011;15244;49.088;11.886;2022-12-18T00:24:54;64.90;;;30.58;;
27424;SDS011;15244;49.088;11.886;2022-12-18T00:29:55;74.60;;;33.53;;
27424;SDS011;15244;49.088;11.886;2022-12-18T00:34:57;64.40;;;31.70;;
27424;SDS011;15244;49.088;11.886;2022-12-18T00:39:58;78.90;;;34.97;;
27424;SDS011;15244;49.088;11.886;2022-12-18T00:45:00;72.18;;;31.90;;
27424;SDS011;15244;49.088;11.886;2022-12-18T00:50:02;81.30;;;35.33;;
27424;SDS011;15244;49.088;11.886;2022-12-18T00:55:04;76.50;;;34.65;;
27424;SDS011;15244;49.088;11.886;2022-12-18T01:00:07;72.47;;;34.20;;
27424;SDS011;15244;49.088;11.886;2022-12-18T01:05:11;67.35;;;30.65;;
27424;SDS011;15244;49.088;11.886;2022-12-18T01:10:13;55.78;;;27.45;;
27424;SDS011;15244;49.088;11.886;2022-12-18T01:15:15;64.15;;;30.27;;
27424;SDS011;15244;49.088;11.886;2022-12-18T01:20:17;64.60;;;31.05;;
27424;SDS011;15244;49.088;11.886;2022-12-18T01:25:19;66.03;;;30.30;;
27424;SDS011;15244;49.088;11.886;2022-12-18T01:30:21;61.83;;;27.48;;
27424;SDS011;15244;49.088;11.886;2022-12-18T01:35:22;61.53;;;28.77;;
27424;SDS011;15244;49.088;11.886;2022-12-18T01:40:24;65.78;;;27.52;;
27424;SDS011;15244;49.088;11.886;2022-12-18T01:45:27;61.75;;;26.33;;
27424;SDS011;15244;49.088;11.886;2022-12-18T01:50:40;63.72;;;28.48;;
27424;SDS011;15244;49.088;11.886;2022-12-18T01:55:45;61.13;;;28.48;;
27424;SDS011;15244;49.088;11.886;2022-12-18T02:00:49;58.10;;;26.42;;
27424;SDS011;15244;49.088;11.886;2022-12-18T02:06:06;59.03;;;25.35;;
27424;SDS011;15244;49.088;11.886;2022-12-18T02:22:18;52.03;;;24.60;;
27424;SDS011;15244;49.088;11.886;2022-12-18T02:27:22;46.95;;;21.52;;
27424;SDS011;15244;49.088;11.886;2022-12-18T02:32:28;46.90;;;21.13;;
27424;SDS011;15244;49.088;11.886;2022-12-18T02:37:34;47.85;;;22.02;;
27424;SDS011;15244;49.088;11.886;2022-12-18T02:42:39;47.78;;;22.23;;
27424;SDS011;15244;49.088;11.886;2022-12-18T02:47:43;52.90;;;24.15;;
27424;SDS011;15244;49.088;11.886;2022-12-18T03:04:12;52.60;;;22.20;;
27424;SDS011;15244;49.088;11.886;2022-12-18T03:09:19;52.65;;;23.42;;
27424;SDS011;15244;49.088;11.886;2022-12-18T03:14:26;56.10;;;23.73;;
27424;SDS011;15244;49.088;11.886;2022-12-18T03:19:32;51.47;;;22.83;;
27424;SDS011;15244;49.088;11.886;2022-12-18T03:24:36;58.15;;;25.02;;
27424;SDS011;15244;49.088;11.886;2022-12-18T03:29:46;58.45;;;25.00;;
27424;SDS011;15244;49.088;11.886;2022-12-18T03:35:00;64.82;;;27.73;;
27424;SDS011;15244;49.088;11.886;2022-12-18T03:40:10;65.97;;;28.00;;
27424;SDS011;15244;49.088;11.886;2022-12-18T03:50:22;51.92;;;24.25;;
27424;SDS011;15244;49.088;11.886;2022-12-18T03:55:30;53.00;;;23.27;;
27424;SDS011;15244;49.088;11.886;2022-12-18T04:00:38;43.08;;;20.95;;
27424;SDS011;15244;49.088;11.886;2022-12-18T04:05:42;42.17;;;20.55;;
27424;SDS011;15244;49.088;11.886;2022-12-18T04:10:48;43.92;;;20.27;;
27424;SDS011;15244;49.088;11.886;2022-12-18T04:15:50;42.63;;;19.75;;
27424;SDS011;15244;49.088;11.886;2022-12-18T04:20:53;46.40;;;22.20;;
27424;SDS011;15244;49.088;11.886;2022-12-18T04:25:56;43.90;;;20.67;;
27424;SDS011;15244;49.088;11.886;2022-12-18T04:31:27;46.20;;;21.83;;
27424;SDS011;15244;49.088;11.886;2022-12-18T04:36:30;50.90;;;23.23;;
27424;SDS011;15244;49.088;11.886;2022-12-18T04:41:31;45.72;;;21.05;;
27424;SDS011;15244;49.088;11.886;2022-12-18T04:46:33;47.53;;;21.67;;
27424;SDS011;15244;49.088;11.886;2022-12-18T04:51:35;49.13;;;22.15;;
27424;SDS011;15244;49.088;11.886;2022-12-18T04:56:37;42.45;;;20.40;;
27424;SDS011;15244;49.088;11.886;2022-12-18T05:01:39;43.22;;;19.77;;
27424;SDS011;15244;49.088;11.886;2022-12-18T05:06:41;42.10;;;19.17;;
27424;SDS011;15244;49.088;11.886;2022-12-18T05:11:42;36.72;;;19.73;;
27424;SDS011;15244;49.088;11.886;2022-12-18T05:16:46;45.03;;;21.48;;
27424;SDS011;15244;49.088;11.886;2022-12-18T05:21:48;39.03;;;19.95;;
27424;SDS011;15244;49.088;11.886;2022-12-18T05:26:49;49.65;;;21.45;;
27424;SDS011;15244;49.088;11.886;2022-12-18T05:31:51;48.47;;;22.63;;
27424;SDS011;15244;49.088;11.886;2022-12-18T05:36:52;41.72;;;20.10;;
27424;SDS011;15244;49.088;11.886;2022-12-18T05:41:54;46.50;;;21.63;;
27424;SDS011;15244;49.088;11.886;2022-12-18T05:46:55;45.30;;;20.52;;
27424;SDS011;15244;49.088;11.886;2022-12-18T05:51:57;49.47;;;22.92;;
27424;SDS011;15244;49.088;11.886;2022-12-18T05:56:58;44.90;;;20.63;;
27424;SDS011;15244;49.088;11.886;2022-12-18T06:02:00;35.15;;;17.75;;
27424;SDS011;15244;49.088;11.886;2022-12-18T06:07:02;39.15;;;18.63;;
27424;SDS011;15244;49.088;11.886;2022-12-18T06:12:05;36.55;;;17.58;;
27424;SDS011;15244;49.088;11.886;2022-12-18T06:17:06;39.95;;;19.63;;
27424;SDS011;15244;49.088;11.886;2022-12-18T06:22:08;40.42;;;18.70;;
27424;SDS011;15244;49.088;11.886;2022-12-18T06:27:09;36.70;;;17.88;;
27424;SDS011;15244;49.088;11.886;2022-12-18T06:32:11;36.88;;;17.85;;
27424;SDS011;15244;49.088;11.886;2022-12-18T06:37:13;40.25;;;18.98;;
27424;SDS011;15244;49.088;11.886;2022-12-18T06:42:14;41.90;;;17.77;;
27424;SDS011;15244;49.088;11.886;2022-12-18T06:47:16;42.92;;;20.40;;
27424;SDS011;15244;49.088;11.886;2022-12-18T06:52:17;43.95;;;19.38;;
27424;SDS011;15244;49.088;11.886;2022-12-18T06:57:19;41.33;;;19.05;;
27424;SDS011;15244;49.088;11.886;2022-12-18T07:02:20;45.65;;;20.27;;
27424;SDS011;15244;49.088;11.886;2022-12-18T07:07:22;42.15;;;18.88;;
27424;SDS011;15244;49.088;11.886;2022-12-18T07:12:24;35.83;;;17.73;;
27424;SDS011;15244;49.088;11.886;2022-12-18T07:17:25;42.17;;;20.48;;
27424;SDS011;15244;49.088;11.886;2022-12-18T07:22:27;42.20;;;18.50;;
27424;SDS011;15244;49.088;11.886;2022-12-18T07:27:28;43.35;;;17.85;;
27424;SDS011;15244;49.088;11.886;2022-12-18T07:32:30;47.55;;;18.33;;
27424;SDS011;15244;49.088;11.886;2022-12-18T07:37:31;44.22;;;19.48;;
27424;SDS011;15244;49.088;11.886;2022-12-18T07:42:33;72.60;;;33.13;;
27424;SDS011;15244;49.088;11.886;2022-12-18T07:47:35;48.78;;;21.45;;
27424;SDS011;15244;49.088;11.886;2022-12-18T07:52:37;49.22;;;20.70;;
27424;SDS011;15244;49.088;11.886;2022-12-18T07:57:39;47.05;;;20.50;;
27424;SDS011;15244;49.088;11.886;2022-12-18T08:03:00;45.40;;;19.77;;
27424;SDS011;15244;49.088;11.886;2022-12-18T08:08:03;49.25;;;20.95;;
27424;SDS011;15244;49.088;11.886;2022-12-18T08:13:04;55.03;;;22.88;;
27424;SDS011;15244;49.088;11.886;2022-12-18T08:18:06;49.05;;;20.73;;
27424;SDS011;15244;49.088;11.886;2022-12-18T08:23:14;56.38;;;23.25;;
27424;SDS011;15244;49.088;11.886;2022-12-18T08:28:16;48.25;;;22.20;;
27424;SDS011;15244;49.088;11.886;2022-12-18T08:33:17;48.30;;;20.42;;
27424;SDS011;15244;49.088;11.886;2022-12-18T08:38:19;52.60;;;23.13;;
27424;SDS011;15244;49.088;11.886;2022-12-18T08:43:21;54.63;;;22.70;;
27424;SDS011;15244;49.088;11.886;2022-12-18T08:48:41;56.28;;;22.75;;
27424;SDS011;15244;49.088;11.886;2022-12-18T08:53:43;54.20;;;22.23;;
27424;SDS011;15244;49.088;11.886;2022-12-18T08:58:45;55.10;;;23.17;;
27424;SDS011;15244;49.088;11.886;2022-12-18T09:03:48;52.78;;;21.52;;
27424;SDS011;15244;49.088;11.886;2022-12-18T09:08:50;46.75;;;20.60;;
27424;SDS011;15244;49.088;11.886;2022-12-18T09:13:52;51.28;;;22.58;;
27424;SDS011;15244;49.088;11.886;2022-12-18T09:18:55;54.45;;;24.02;;
27424;SDS011;15244;49.088;11.886;2022-12-18T09:24:00;45.88;;;22.05;;
27424;SDS011;15244;49.088;11.886;2022-12-18T09:29:02;51.90;;;24.67;;
27424;SDS011;15244;49.088;11.886;2022-12-18T09:34:04;48.05;;;21.55;;
27424;SDS011;15244;49.088;11.886;2022-12-18T09:39:06;48.92;;;21.35;;
27424;SDS011;15244;49.088;11.886;2022-12-18T09:49:29;41.83;;;19.88;;
27424;SDS011;15244;49.088;11.886;2022-12-18T09:54:38;42.58;;;20.35;;
27424;SDS011;15244;49.088;11.886;2022-12-18T09:59:58;48.65;;;21.02;;
27424;SDS011;15244;49.088;11.886;2022-12-18T10:05:12;42.92;;;19.90;;
27424;SDS011;15244;49.088;11.886;2022-12-18T10:10:23;45.40;;;21.35;;
27424;SDS011;15244;49.088;11.886;2022-12-18T10:15:36;40.13;;;18.63;;
27424;SDS011;15244;49.088;11.886;2022-12-18T10:20:47;41.17;;;19.50;;
27424;SDS011;15244;49.088;11.886;2022-12-18T10:30:57;33.65;;;17.65;;
27424;SDS011;15244;49.088;11.886;2022-12-18T10:35:59;44.15;;;20.17;;
27424;SDS011;15244;49.088;11.886;2022-12-18T10:41:03;32.40;;;16.75;;
27424;SDS011;15244;49.088;11.886;2022-12-18T10:51:09;36.25;;;18.42;;
27424;SDS011;15244;49.088;11.886;2022-12-18T10:56:13;41.15;;;18.58;;
27424;SDS011;15244;49.088;11.886;2022-12-18T11:01:21;38.75;;;18.58;;
27424;SDS011;15244;49.088;11.886;2022-12-18T11:06:24;36.55;;;17.23;;
27424;SDS011;15244;49.088;11.886;2022-12-18T11:11:26;39.95;;;19.48;;
27424;SDS011;15244;49.088;11.886;2022-12-18T11:16:30;39.65;;;19.95;;
27424;SDS011;15244;49.088;11.886;2022-12-18T11:21:39;26.83;;;14.83;;
27424;SDS011;15244;49.088;11.886;2022-12-18T11:26:42;38.47;;;18.70;;
27424;SDS011;15244;49.088;11.886;2022-12-18T11:31:44;38.45;;;18.38;;
27424;SDS011;15244;49.088;11.886;2022-12-18T11:36:47;38.53;;;18.73;;
27424;SDS011;15244;49.088;11.886;2022-12-18T11:41:57;42.90;;;19.77;;
27424;SDS011;15244;49.088;11.886;2022-12-18T11:52:51;38.33;;;18.77;;
27424;SDS011;15244;49.088;11.886;2022-12-18T12:03:21;44.72;;;19.60;;
27424;SDS011;15244;49.088;11.886;2022-12-18T12:19:29;41.33;;;19.73;;
27424;SDS011;15244;49.088;11.886;2022-12-18T12:24:59;42.08;;;19.55;;
27424;SDS011;15244;49.088;11.886;2022-12-18T12:30:30;47.85;;;20.50;;
27424;SDS011;15244;49.088;11.886;2022-12-18T12:35:50;38.50;;;20.13;;
27424;SDS011;15244;49.088;11.886;2022-12-18T12:41:23;41.22;;;21.30;;
27424;SDS011;15244;49.088;11.886;2022-12-18T12:46:46;41.55;;;19.60;;
27424;SDS011;15244;49.088;11.886;2022-12-18T12:51:53;46.22;;;21.10;;
27424;SDS011;15244;49.088;11.886;2022-12-18T13:02:30;51.72;;;22.85;;
27424;SDS011;15244;49.088;11.886;2022-12-18T13:18:24;45.28;;;22.05;;
27424;SDS011;15244;49.088;11.886;2022-12-18T13:33:48;41.93;;;20.90;;
27424;SDS011;15244;49.088;11.886;2022-12-18T13:44:31;45.63;;;23.80;;
27424;SDS011;15244;49.088;11.886;2022-12-18T13:49:41;41.40;;;21.00;;
27424;SDS011;15244;49.088;11.886;2022-12-18T13:54:47;45.72;;;22.45;;
27424;SDS011;15244;49.088;11.886;2022-12-18T13:59:52;40.67;;;22.00;;
27424;SDS011;15244;49.088;11.886;2022-12-18T14:04:54;43.38;;;22.20;;
27424;SDS011;15244;49.088;11.886;2022-12-18T14:10:00;44.42;;;21.63;;
27424;SDS011;15244;49.088;11.886;2022-12-18T14:15:25;52.30;;;23.33;;
27424;SDS011;15244;49.088;11.886;2022-12-18T14:20:35;39.88;;;20.52;;
27424;SDS011;15244;49.088;11.886;2022-12-18T14:25:38;55.53;;;23.30;;
27424;SDS011;15244;49.088;11.886;2022-12-18T14:30:43;51.60;;;21.85;;
27424;SDS011;15244;49.088;11.886;2022-12-18T14:35:54;37.67;;;20.23;;
27424;SDS011;15244;49.088;11.886;2022-12-18T14:46:33;48.03;;;21.73;;
27424;SDS011;15244;49.088;11.886;2022-12-18T14:51:41;41.13;;;20.60;;
27424;SDS011;15244;49.088;11.886;2022-12-18T14:56:51;41.63;;;21.38;;
27424;SDS011;15244;49.088;11.886;2022-12-18T15:02:03;42.05;;;20.98;;
27424;SDS011;15244;49.088;11.886;2022-12-18T15:07:21;46.28;;;21.80;;
27424;SDS011;15244;49.088;11.886;2022-12-18T15:12:26;46.47;;;21.65;;
27424;SDS011;15244;49.088;11.886;2022-12-18T15:17:35;46.78;;;22.15;;
27424;SDS011;15244;49.088;11.886;2022-12-18T15:22:37;50.70;;;23.35;;
27424;SDS011;15244;49.088;11.886;2022-12-18T15:27:38;49.55;;;23.73;;
27424;SDS011;15244;49.088;11.886;2022-12-18T15:32:48;48.42;;;23.65;;
27424;SDS011;15244;49.088;11.886;2022-12-18T15:37:51;45.50;;;22.10;;
27424;SDS011;15244;49.088;11.886;2022-12-18T15:42:53;48.30;;;23.08;;
27424;SDS011;15244;49.088;11.886;2022-12-18T15:48:21;46.22;;;21.33;;
27424;SDS011;15244;49.088;11.886;2022-12-18T15:53:24;42.28;;;21.05;;
27424;SDS011;15244;49.088;11.886;2022-12-18T15:58:29;42.88;;;21.65;;
27424;SDS011;15244;49.088;11.886;2022-12-18T16:03:30;43.05;;;20.95;;
27424;SDS011;15244;49.088;11.886;2022-12-18T16:08:32;43.95;;;21.35;;
27424;SDS011;15244;49.088;11.886;2022-12-18T16:13:34;48.22;;;23.35;;
27424;SDS011;15244;49.088;11.886;2022-12-18T16:18:35;41.10;;;21.17;;
27424;SDS011;15244;49.088;11.886;2022-12-18T16:23:37;46.75;;;23.90;;
27424;SDS011;15244;49.088;11.886;2022-12-18T16:28:39;45.97;;;21.38;;
27424;SDS011;15244;49.088;11.886;2022-12-18T16:33:48;47.72;;;22.55;;
27424;SDS011;15244;49.088;11.886;2022-12-18T16:38:49;44.60;;;21.42;;
27424;SDS011;15244;49.088;11.886;2022-12-18T16:43:51;40.00;;;20.48;;
27424;SDS011;15244;49.088;11.886;2022-12-18T16:48:56;43.25;;;21.35;;
27424;SDS011;15244;49.088;11.886;2022-12-18T16:53:59;40.38;;;20.38;;
27424;SDS011;15244;49.088;11.886;2022-12-18T16:59:06;33.60;;;16.15;;
27424;SDS011;15244;49.088;11.886;2022-12-18T17:04:10;43.88;;;21.65;;
27424;SDS011;15244;49.088;11.886;2022-12-18T17:09:12;43.85;;;21.38;;
27424;SDS011;15244;49.088;11.886;2022-12-18T17:14:17;44.85;;;21.33;;
27424;SDS011;15244;49.088;11.886;2022-12-18T17:19:20;46.85;;;22.13;;
27424;SDS011;15244;49.088;11.886;2022-12-18T17:24:23;44.08;;;21.63;;
27424;SDS011;15244;49.088;11.886;2022-12-18T17:29:24;44.42;;;23.10;;
27424;SDS011;15244;49.088;11.886;2022-12-18T17:34:26;41.13;;;21.13;;
27424;SDS011;15244;49.088;11.886;2022-12-18T17:39:29;46.17;;;23.02;;
27424;SDS011;15244;49.088;11.886;2022-12-18T17:44:31;45.45;;;22.38;;
27424;SDS011;15244;49.088;11.886;2022-12-18T17:49:34;46.45;;;22.70;;
27424;SDS011;15244;49.088;11.886;2022-12-18T17:54:36;47.40;;;22.80;;
27424;SDS011;15244;49.088;11.886;2022-12-18T17:59:40;44.92;;;22.20;;
27424;SDS011;15244;49.088;11.886;2022-12-18T18:04:42;43.05;;;22.40;;
27424;SDS011;15244;49.088;11.886;2022-12-18T18:09:43;43.30;;;21.90;;
27424;SDS011;15244;49.088;11.886;2022-12-18T18:14:45;45.05;;;23.55;;
27424;SDS011;15244;49.088;11.886;2022-12-18T18:19:47;46.00;;;22.40;;
27424;SDS011;15244;49.088;11.886;2022-12-18T18:24:50;43.60;;;22.95;;
27424;SDS011;15244;49.088;11.886;2022-12-18T18:29:51;46.90;;;22.88;;
27424;SDS011;15244;49.088;11.886;2022-12-18T18:34:53;47.22;;;24.67;;
27424;SDS011;15244;49.088;11.886;2022-12-18T18:39:55;49.67;;;23.27;;
27424;SDS011;15244;49.088;11.886;2022-12-18T18:44:57;47.45;;;24.58;;
27424;SDS011;15244;49.088;11.886;2022-12-18T18:49:58;45.70;;;23.33;;
27424;SDS011;15244;49.088;11.886;2022-12-18T18:55:00;48.92;;;23.23;;
27424;SDS011;15244;49.088;11.886;2022-12-18T19:00:16;42.50;;;23.08;;
27424;SDS011;15244;49.088;11.886;2022-12-18T19:05:18;50.97;;;25.50;;
27424;SDS011;15244;49.088;11.886;2022-12-18T19:10:20;49.83;;;24.50;;
27424;SDS011;15244;49.088;11.886;2022-12-18T19:15:22;48.10;;;24.33;;
27424;SDS011;15244;49.088;11.886;2022-12-18T19:20:23;50.65;;;24.65;;
27424;SDS011;15244;49.088;11.886;2022-12-18T19:25:25;51.00;;;25.80;;
27424;SDS011;15244;49.088;11.886;2022-12-18T19:30:41;52.50;;;25.90;;
27424;SDS011;15244;49.088;11.886;2022-12-18T19:35:43;48.67;;;25.98;;
27424;SDS011;15244;49.088;11.886;2022-12-18T19:40:45;53.00;;;26.38;;
27424;SDS011;15244;49.088;11.886;2022-12-18T19:45:52;51.80;;;27.13;;
27424;SDS011;15244;49.088;11.886;2022-12-18T19:50:55;52.40;;;27.00;;
27424;SDS011;15244;49.088;11.886;2022-12-18T19:55:56;54.58;;;28.52;;
27424;SDS011;15244;49.088;11.886;2022-12-18T20:00:58;52.45;;;26.60;;
27424;SDS011;15244;49.088;11.886;2022-12-18T20:06:07;57.08;;;28.42;;
27424;SDS011;15244;49.088;11.886;2022-12-18T20:11:28;55.05;;;28.15;;
27424;SDS011;15244;49.088;11.886;2022-12-18T20:16:30;58.50;;;28.85;;
27424;SDS011;15244;49.088;11.886;2022-12-18T20:21:32;60.38;;;29.85;;
27424;SDS011;15244;49.088;11.886;2022-12-18T20:26:33;60.45;;;28.80;;
27424;SDS011;15244;49.088;11.886;2022-12-18T20:31:35;62.92;;;30.10;;
27424;SDS011;15244;49.088;11.886;2022-12-18T20:36:36;59.90;;;27.70;;
27424;SDS011;15244;49.088;11.886;2022-12-18T20:41:41;55.92;;;27.75;;
27424;SDS011;15244;49.088;11.886;2022-12-18T20:46:43;51.55;;;25.60;;
27424;SDS011;15244;49.088;11.886;2022-12-18T20:51:44;47.35;;;24.45;;
27424;SDS011;15244;49.088;11.886;2022-12-18T20:56:46;53.78;;;25.30;;
27424;SDS011;15244;49.088;11.886;2022-12-18T21:01:48;51.13;;;24.42;;
27424;SDS011;15244;49.088;11.886;2022-12-18T21:06:50;55.92;;;27.10;;
27424;SDS011;15244;49.088;11.886;2022-12-18T21:12:02;49.17;;;24.63;;
27424;SDS011;15244;49.088;11.886;2022-12-18T21:17:22;53.88;;;26.52;;
27424;SDS011;15244;49.088;11.886;2022-12-18T21:22:27;60.53;;;26.90;;
27424;SDS011;15244;49.088;11.886;2022-12-18T21:27:29;61.92;;;28.20;;
27424;SDS011;15244;49.088;11.886;2022-12-18T21:32:30;60.38;;;27.73;;
27424;SDS011;15244;49.088;11.886;2022-12-18T21:37:34;56.10;;;26.50;;
27424;SDS011;15244;49.088;11.886;2022-12-18T21:42:35;56.70;;;27.55;;
27424;SDS011;15244;49.088;11.886;2022-12-18T21:47:55;58.60;;;27.73;;
27424;SDS011;15244;49.088;11.886;2022-12-18T21:52:57;57.83;;;27.77;;
27424;SDS011;15244;49.088;11.886;2022-12-18T21:57:59;56.70;;;28.13;;
27424;SDS011;15244;49.088;11.886;2022-12-18T22:03:00;60.47;;;28.88;;
27424;SDS011;15244;49.088;11.886;2022-12-18T22:08:19;62.35;;;27.70;;
27424;SDS011;15244;49.088;11.886;2022-12-18T22:13:21;65.88;;;29.98;;
27424;SDS011;15244;49.088;11.886;2022-12-18T22:18:22;64.53;;;30.33;;
27424;SDS011;15244;49.088;11.886;2022-12-18T22:23:24;69.18;;;31.55;;
27424;SDS011;15244;49.088;11.886;2022-12-18T22:28:25;64.00;;;30.02;;
27424;SDS011;15244;49.088;11.886;2022-12-18T22:33:46;70.90;;;31.65;;
27424;SDS011;15244;49.088;11.886;2022-12-18T22:38:47;64.93;;;30.10;;
27424;SDS011;15244;49.088;11.886;2022-12-18T22:43:49;75.53;;;33.00;;
27424;SDS011;15244;49.088;11.886;2022-12-18T22:48:50;61.08;;;29.10;;
27424;SDS011;15244;49.088;11.886;2022-12-18T22:53:52;59.90;;;29.58;;
27424;SDS011;15244;49.088;11.886;2022-12-18T22:58:55;66.22;;;29.92;;
27424;SDS011;15244;49.088;11.886;2022-12-18T23:03:58;57.42;;;28.45;;
27424;SDS011;15244;49.088;11.886;2022-12-18T23:09:00;58.80;;;28.20;;
27424;SDS011;15244;49.088;11.886;2022-12-18T23:14:01;59.05;;;28.67;;
27424;SDS011;15244;49.088;11.886;2022-12-18T23:19:03;56.08;;;28.13;;
27424;SDS011;15244;49.088;11.886;2022-12-18T23:24:06;56.80;;;28.10;;
27424;SDS011;15244;49.088;11.886;2022-12-18T23:29:08;60.97;;;30.02;;
27424;SDS011;15244;49.088;11.886;2022-12-18T23:34:10;55.65;;;27.48;;
27424;SDS011;15244;49.088;11.886;2022-12-18T23:39:14;52.42;;;27.67;;
27424;SDS011;15244;49.088;11.886;2022-12-18T23:44:29;49.92;;;26.75;;
27424;SDS011;15244;49.088;11.886;2022-12-18T23:49:31;61.17;;;30.00;;
27424;SDS011;15244;49.088;11.886;2022-12-18T23:54:32;50.13;;;26.48;;
27424;SDS011;15244;49.088;11.886;2022-12-18T23:59:34;49.65;;;26.45;;
